createdAt,value
2023-09-08T00:02:30.154Z,8.40
2023-09-08T00:05:39.062Z,7.20
2023-09-08T00:08:46.374Z,9.00
2023-09-08T00:11:53.493Z,8.80
2023-09-08T00:15:02.735Z,7.50
2023-09-08T00:18:10.739Z,8.00
2023-09-08T00:21:18.812Z,8.20
2023-09-08T00:24:28.145Z,7.20
2023-09-08T00:27:36.460Z,9.20
2023-09-08T00:30:44.682Z,8.10
2023-09-08T00:33:52.234Z,8.90
2023-09-08T00:37:01.059Z,9.00
2023-09-08T00:40:08.440Z,7.20
2023-09-08T00:43:15.926Z,9.90
2023-09-08T00:46:24.629Z,7.10
2023-09-08T00:49:32.127Z,9.00
2023-09-08T00:52:39.466Z,8.10
2023-09-08T00:55:40.537Z,6.90
2023-09-08T00:58:47.669Z,8.30
2023-09-08T01:01:55.034Z,7.70
2023-09-08T01:05:04.247Z,9.40
2023-09-08T01:08:11.756Z,9.20
2023-09-08T01:11:20.843Z,9.40
2023-09-08T01:14:27.946Z,13.10
2023-09-08T01:17:37.037Z,9.30
2023-09-08T01:20:44.470Z,6.70
2023-09-08T01:23:52.540Z,7.10
2023-09-08T01:27:02.614Z,8.30
2023-09-08T01:30:09.463Z,6.60
2023-09-08T01:33:17.580Z,7.40
2023-09-08T01:39:22.807Z,9.20
2023-09-08T01:42:31.821Z,11.00
2023-09-08T01:45:41.320Z,8.20
2023-09-08T01:48:48.331Z,10.60
2023-09-08T01:51:56.163Z,9.00
2023-09-08T01:55:04.001Z,10.10
2023-09-08T01:58:13.342Z,11.10
2023-09-08T02:01:20.887Z,7.80
2023-09-08T02:04:28.398Z,9.00
2023-09-08T02:07:37.126Z,8.60
2023-09-08T02:10:45.738Z,8.30
2023-09-08T02:13:53.886Z,9.20
2023-09-08T02:17:03.271Z,7.50
2023-09-08T02:20:11.258Z,10.50
2023-09-08T02:23:17.871Z,10.20
2023-09-08T02:26:26.764Z,9.30
2023-09-08T02:29:33.927Z,9.10
2023-09-08T02:32:41.176Z,10.10
2023-09-08T02:35:50.066Z,9.30
2023-09-08T02:38:57.137Z,10.50
2023-09-08T02:42:04.975Z,9.90
2023-09-08T02:45:12.163Z,9.50
2023-09-08T02:48:21.030Z,12.00
2023-09-08T02:51:28.027Z,11.30
2023-09-08T02:54:36.295Z,9.20
2023-09-08T02:57:45.482Z,7.70
2023-09-08T03:00:52.675Z,9.40
2023-09-08T03:04:00.105Z,8.90
2023-09-08T03:07:09.243Z,11.00
2023-09-08T03:10:16.699Z,10.70
2023-09-08T03:13:24.550Z,7.90
2023-09-08T03:16:33.468Z,9.40
2023-09-08T03:19:40.752Z,12.60
2023-09-08T03:22:48.084Z,9.60
2023-09-08T03:25:56.171Z,9.70
2023-09-08T03:29:05.491Z,10.50
2023-09-08T03:32:12.692Z,11.60
2023-09-08T03:35:20.220Z,10.10
2023-09-08T03:38:29.140Z,9.60
2023-09-08T03:41:36.551Z,11.30
2023-09-08T03:44:43.956Z,10.20
2023-09-08T03:47:52.857Z,9.00
2023-09-08T03:51:00.197Z,10.70
2023-09-08T03:54:08.693Z,10.60
2023-09-08T03:57:17.411Z,9.70
2023-09-08T04:00:24.791Z,10.00
2023-09-08T04:03:32.894Z,10.10
2023-09-08T04:06:41.604Z,10.90
2023-09-08T04:09:50.853Z,12.50
2023-09-08T04:12:57.796Z,11.30
2023-09-08T04:16:05.186Z,10.60
2023-09-08T04:19:13.549Z,12.00
2023-09-08T04:22:21.038Z,9.60
2023-09-08T04:25:28.586Z,8.90
2023-09-08T04:28:37.997Z,10.20
2023-09-08T04:31:45.458Z,9.80
2023-09-08T04:34:52.498Z,11.30
2023-09-08T04:38:03.557Z,13.20
2023-09-08T04:41:02.646Z,11.00
2023-09-08T04:44:10.243Z,12.30
2023-09-08T04:46:30.839Z,12.80
2023-09-08T04:49:39.530Z,10.50
2023-09-08T04:52:46.798Z,11.40
2023-09-08T04:55:54.431Z,10.70
2023-09-08T04:59:02.969Z,12.00
2023-09-08T05:02:09.744Z,10.10
2023-09-08T05:05:16.584Z,9.00
2023-09-08T05:08:25.915Z,13.30
2023-09-08T05:11:32.792Z,13.10
2023-09-08T05:14:42.150Z,11.90
2023-09-08T05:17:51.083Z,11.20
2023-09-08T05:20:58.966Z,11.80
2023-09-08T05:24:06.619Z,11.50
2023-09-08T05:27:14.186Z,13.30
2023-09-08T05:30:23.493Z,13.20
2023-09-08T05:33:30.744Z,10.70
2023-09-08T05:36:38.814Z,10.70
2023-09-08T05:39:46.932Z,13.30
2023-09-08T05:42:54.399Z,11.20
2023-09-08T05:46:02.284Z,12.00
2023-09-08T05:49:11.182Z,11.30
2023-09-08T05:52:18.252Z,13.20
2023-09-08T05:55:25.590Z,12.70
2023-09-08T05:58:34.384Z,11.70
2023-09-08T06:01:42.064Z,10.50
2023-09-08T06:04:48.935Z,12.40
2023-09-08T06:08:06.710Z,11.10
2023-09-08T06:11:02.643Z,13.20
2023-09-08T06:14:09.749Z,10.70
2023-09-08T06:17:16.834Z,9.90
2023-09-08T06:20:26.304Z,10.00
2023-09-08T06:23:36.631Z,10.90
2023-09-08T06:26:34.561Z,11.90
2023-09-08T06:29:43.517Z,10.20
2023-09-08T06:32:51.291Z,9.60
2023-09-08T06:35:58.486Z,13.10
2023-09-08T06:39:06.634Z,10.00
2023-09-08T06:42:13.681Z,10.10
2023-09-08T06:45:20.787Z,11.20
2023-09-08T06:48:28.455Z,7.90
2023-09-08T06:51:37.278Z,9.70
2023-09-08T06:54:44.049Z,13.00
2023-09-08T06:57:51.686Z,9.60
2023-09-08T07:01:00.350Z,8.90
2023-09-08T07:04:07.715Z,8.40
2023-09-08T07:07:15.776Z,8.10
2023-09-08T07:10:25.406Z,8.80
2023-09-08T07:13:32.661Z,9.50
2023-09-08T07:16:40.288Z,7.50
2023-09-08T07:19:49.011Z,9.40
2023-09-08T07:22:56.659Z,10.40
2023-09-08T07:26:03.780Z,9.10
2023-09-08T07:29:11.430Z,8.90
2023-09-08T07:32:20.068Z,9.80
2023-09-08T07:35:27.620Z,8.90
2023-09-08T07:38:35.420Z,9.30
2023-09-08T07:41:44.779Z,12.20
2023-09-08T07:44:52.066Z,9.10
2023-09-08T07:48:00.091Z,8.60
2023-09-08T07:51:08.329Z,11.90
2023-09-08T07:54:16.060Z,8.10
2023-09-08T07:57:23.282Z,7.70
2023-09-08T08:00:32.815Z,8.80
2023-09-08T08:03:40.434Z,9.20
2023-09-08T08:06:47.697Z,11.80
2023-09-08T08:09:54.969Z,12.40
2023-09-08T08:13:03.446Z,10.30
2023-09-08T08:16:10.641Z,7.50
2023-09-08T08:19:18.379Z,7.40
2023-09-08T08:22:27.010Z,8.40
2023-09-08T08:25:34.450Z,9.70
2023-09-08T08:28:42.024Z,6.30
2023-09-08T08:31:50.551Z,6.60
2023-09-08T08:34:57.903Z,5.10
2023-09-08T08:38:05.534Z,5.10
2023-09-08T08:41:14.191Z,6.70
2023-09-08T08:44:22.143Z,6.10
2023-09-08T08:47:29.963Z,5.30
2023-09-08T08:50:38.728Z,6.60
2023-09-08T08:53:46.809Z,5.30
2023-09-08T08:56:54.617Z,4.20
2023-09-08T09:00:02.240Z,5.60
2023-09-08T09:03:14.913Z,6.90
2023-09-08T09:06:12.092Z,4.40
2023-09-08T09:09:19.888Z,5.20
2023-09-08T09:12:29.369Z,6.10
2023-09-08T09:15:37.003Z,7.50
2023-09-08T09:18:44.034Z,7.40
2023-09-08T09:21:52.535Z,5.50
2023-09-08T09:24:59.773Z,6.90
2023-09-08T09:28:07.072Z,9.70
2023-09-08T09:31:16.602Z,5.30
2023-09-08T09:34:24.275Z,7.60
2023-09-08T09:37:31.159Z,5.40
2023-09-08T09:40:38.868Z,5.50
2023-09-08T09:43:47.241Z,4.60
2023-09-08T09:46:55.144Z,7.80
2023-09-08T09:50:02.264Z,13.90
2023-09-08T09:53:11.539Z,6.00
2023-09-08T09:56:18.636Z,5.10
2023-09-08T09:59:25.732Z,5.50
2023-09-08T10:02:34.413Z,5.10
2023-09-08T10:05:42.010Z,5.40
2023-09-08T10:08:49.182Z,4.40
2023-09-08T10:11:57.722Z,6.10
2023-09-08T10:15:05.297Z,6.90
2023-09-08T10:18:12.288Z,3.70
2023-09-08T10:21:19.913Z,7.00
2023-09-08T10:24:28.887Z,8.70
2023-09-08T10:27:35.840Z,6.00
2023-09-08T10:30:43.193Z,4.10
2023-09-08T10:33:52.454Z,3.90
2023-09-08T10:36:59.699Z,5.30
2023-09-08T10:40:06.871Z,4.90
2023-09-08T10:43:15.404Z,4.30
2023-09-08T10:46:22.611Z,4.00
2023-09-08T10:49:29.791Z,4.90
2023-09-08T10:52:38.363Z,4.60
2023-09-08T10:55:46.793Z,5.20
2023-09-08T10:58:54.136Z,7.70
2023-09-08T11:02:01.832Z,5.30
2023-09-08T11:05:10.995Z,5.50
2023-09-08T11:08:17.942Z,7.60
2023-09-08T11:11:25.591Z,4.50
2023-09-08T11:14:34.499Z,5.30
2023-09-08T11:17:41.596Z,6.10
2023-09-08T11:20:48.987Z,8.20
2023-09-08T11:23:57.695Z,4.30
2023-09-08T11:27:05.123Z,3.00
2023-09-08T11:30:12.538Z,5.70
2023-09-08T11:33:21.018Z,5.40
2023-09-08T11:36:28.263Z,5.10
2023-09-08T11:39:35.686Z,4.60
2023-09-08T11:42:44.670Z,3.90
2023-09-08T11:45:52.104Z,5.10
2023-09-08T11:48:59.537Z,4.50
2023-09-08T11:52:07.152Z,4.00
2023-09-08T11:55:15.838Z,5.60
2023-09-08T11:58:23.312Z,6.20
2023-09-08T12:01:31.224Z,3.30
2023-09-08T12:04:39.673Z,3.50
2023-09-08T12:07:47.192Z,4.40
2023-09-08T12:10:54.804Z,3.60
2023-09-08T12:14:03.036Z,3.50
2023-09-08T12:17:10.770Z,4.40
2023-09-08T12:20:17.884Z,5.20
2023-09-08T12:23:26.601Z,5.80
2023-09-08T12:26:34.224Z,4.00
2023-09-08T12:29:41.431Z,3.90
2023-09-08T12:32:48.684Z,4.20
2023-09-08T12:35:57.305Z,5.30
2023-09-08T12:39:04.987Z,3.80
2023-09-08T12:42:12.238Z,5.30
2023-09-08T12:45:20.574Z,3.40
2023-09-08T12:48:28.380Z,4.80
2023-09-08T12:51:35.310Z,5.70
2023-09-08T12:54:43.925Z,5.30
2023-09-08T12:57:51.380Z,4.60
2023-09-08T13:00:58.147Z,7.40
2023-09-08T13:04:07.299Z,4.00
2023-09-08T13:07:14.458Z,5.50
2023-09-08T13:10:21.320Z,3.30
2023-09-08T13:13:28.528Z,3.90
2023-09-08T13:16:37.122Z,4.10
2023-09-08T13:19:45.266Z,4.30
2023-09-08T13:22:52.846Z,3.50
2023-09-08T13:26:01.302Z,5.60
2023-09-08T13:29:08.632Z,9.40
2023-09-08T13:32:17.376Z,4.00
2023-09-08T13:35:25.999Z,4.50
2023-09-08T13:38:33.261Z,5.40
2023-09-08T13:41:40.440Z,4.50
2023-09-08T13:44:49.272Z,3.60
2023-09-08T13:47:56.852Z,2.60
2023-09-08T13:51:06.534Z,3.10
2023-09-08T13:54:18.179Z,6.20
2023-09-08T13:57:16.278Z,5.00
2023-09-08T14:00:25.096Z,5.70
2023-09-08T14:03:41.334Z,7.20
2023-09-08T14:06:41.783Z,4.50
2023-09-08T14:09:53.089Z,4.60
2023-09-08T14:12:48.530Z,3.70
2023-09-08T14:15:56.784Z,2.90
2023-09-08T14:19:03.980Z,3.70
2023-09-08T14:22:11.156Z,4.70
2023-09-08T14:25:19.842Z,5.60
2023-09-08T14:28:27.102Z,7.40
2023-09-08T14:31:34.167Z,4.40
2023-09-08T14:34:41.399Z,6.80
2023-09-08T14:37:49.585Z,4.40
2023-09-08T14:40:57.230Z,7.00
2023-09-08T14:44:04.559Z,6.40
2023-09-08T14:47:13.217Z,3.20
2023-09-08T14:50:20.833Z,3.90
2023-09-08T14:53:28.112Z,7.00
2023-09-08T14:56:36.772Z,4.50
2023-09-08T14:59:44.508Z,4.90
2023-09-08T15:02:51.520Z,6.70
2023-09-08T15:06:00.682Z,7.70
2023-09-08T15:09:08.423Z,5.90
2023-09-08T15:12:15.512Z,5.80
2023-09-08T15:15:23.187Z,4.90
2023-09-08T15:18:32.255Z,5.00
2023-09-08T15:21:39.487Z,3.50
2023-09-08T15:24:46.722Z,6.60
2023-09-08T15:27:55.360Z,4.50
2023-09-08T15:31:02.563Z,4.50
2023-09-08T15:34:10.075Z,3.90
2023-09-08T15:37:18.686Z,6.90
2023-09-08T15:40:25.828Z,4.60
2023-09-08T15:43:32.881Z,4.40
2023-09-08T15:46:42.026Z,4.50
2023-09-08T15:49:49.526Z,5.70
2023-09-08T15:52:56.357Z,4.80
2023-09-08T15:56:05.491Z,4.90
2023-09-08T15:59:12.773Z,7.50
2023-09-08T16:02:20.075Z,4.00
2023-09-08T16:05:27.449Z,4.30
2023-09-08T16:08:36.064Z,5.20
2023-09-08T16:11:43.193Z,5.90
2023-09-08T16:14:50.383Z,3.50
2023-09-08T16:17:59.309Z,4.20
2023-09-08T16:21:06.669Z,4.10
2023-09-08T16:24:13.904Z,3.90
2023-09-08T16:27:22.901Z,6.40
2023-09-08T16:30:30.122Z,6.20
2023-09-08T16:33:37.428Z,4.80
2023-09-08T16:36:46.807Z,4.00
2023-09-08T16:39:53.714Z,4.40
2023-09-08T16:43:00.844Z,6.00
2023-09-08T16:46:08.424Z,5.00
2023-09-08T16:49:16.791Z,8.30
2023-09-08T16:52:23.974Z,5.80
2023-09-08T16:55:31.495Z,4.00
2023-09-08T16:58:39.780Z,6.20
2023-09-08T17:01:47.365Z,4.80
2023-09-08T17:04:54.452Z,12.30
2023-09-08T17:08:03.063Z,4.90
2023-09-08T17:11:10.511Z,3.90
2023-09-08T17:14:17.571Z,3.00
2023-09-08T17:17:25.789Z,4.50
2023-09-08T17:20:33.045Z,5.40
2023-09-08T17:23:41.716Z,6.60
2023-09-08T17:26:48.846Z,5.10
2023-09-08T17:29:59.589Z,5.70
2023-09-08T17:33:07.800Z,3.70
2023-09-08T17:36:14.898Z,5.00
2023-09-08T17:39:23.142Z,5.60
2023-09-08T17:42:30.741Z,7.00
2023-09-08T17:45:37.789Z,4.90
2023-09-08T17:48:46.431Z,3.70
2023-09-08T17:51:53.602Z,5.10
2023-09-08T17:55:01.070Z,4.50
2023-09-08T17:58:09.786Z,4.20
2023-09-08T18:01:16.654Z,4.80
2023-09-08T18:04:24.255Z,4.30
2023-09-08T18:07:31.146Z,4.00
2023-09-08T18:10:39.727Z,5.10
2023-09-08T18:13:46.922Z,6.60
2023-09-08T18:16:54.696Z,7.20
2023-09-08T18:20:04.067Z,5.70
2023-09-08T18:23:11.485Z,4.40
2023-09-08T18:26:18.677Z,4.40
2023-09-08T18:29:27.272Z,3.80
2023-09-08T18:32:34.833Z,6.10
2023-09-08T18:35:42.254Z,5.60
2023-09-08T18:38:50.868Z,6.50
2023-09-08T18:41:58.191Z,7.00
2023-09-08T18:45:05.747Z,5.50
2023-09-08T18:48:14.709Z,9.10
2023-09-08T18:51:21.923Z,7.00
2023-09-08T18:54:29.794Z,5.60
2023-09-08T18:57:37.053Z,5.90
2023-09-08T19:00:46.143Z,9.90
2023-09-08T19:03:53.132Z,6.90
2023-09-08T19:07:00.356Z,7.50
2023-09-08T19:10:09.663Z,5.20
2023-09-08T19:13:18.063Z,9.70
2023-09-08T19:16:25.052Z,5.40
2023-09-08T19:19:34.053Z,5.00
2023-09-08T19:22:41.654Z,6.50
2023-09-08T19:25:49.082Z,6.70
2023-09-08T19:28:58.452Z,5.20
2023-09-08T19:32:07.575Z,5.70
2023-09-08T19:35:14.615Z,5.90
2023-09-08T19:38:21.870Z,6.60
2023-09-08T19:41:30.624Z,7.10
2023-09-08T19:44:38.279Z,6.70
2023-09-08T19:47:46.388Z,8.80
2023-09-08T19:50:56.293Z,6.20
2023-09-08T19:54:04.838Z,7.50
2023-09-08T19:57:11.980Z,4.80
2023-09-08T20:00:21.665Z,6.00
2023-09-08T20:03:29.471Z,7.70
2023-09-08T20:06:39.310Z,7.80
2023-09-08T20:09:40.955Z,7.80
2023-09-08T20:12:49.049Z,7.50
2023-09-08T20:15:56.160Z,9.10
2023-09-08T20:19:04.691Z,6.90
2023-09-08T20:22:13.473Z,8.00
2023-09-08T20:25:20.749Z,6.10
2023-09-08T20:28:27.636Z,6.90
2023-09-08T20:31:37.547Z,6.80
2023-09-08T20:34:44.362Z,6.40
2023-09-08T20:37:51.845Z,8.40
2023-09-08T20:41:00.652Z,7.80
2023-09-08T20:44:08.677Z,7.60
2023-09-08T20:47:16.147Z,4.90
2023-09-08T20:50:24.861Z,7.40
2023-09-08T20:53:33.026Z,5.90
2023-09-08T20:56:40.355Z,6.10
2023-09-08T20:59:47.979Z,7.60
2023-09-08T21:02:56.909Z,5.70
2023-09-08T21:06:04.273Z,7.20
2023-09-08T21:09:11.671Z,8.00
2023-09-08T21:12:20.869Z,8.30
2023-09-08T21:15:28.259Z,6.90
2023-09-08T21:18:35.069Z,6.10
2023-09-08T21:21:44.447Z,6.90
2023-09-08T21:24:51.821Z,6.50
2023-09-08T21:27:59.040Z,5.40
2023-09-08T21:31:07.680Z,7.50
2023-09-08T21:34:15.382Z,6.70
2023-09-08T21:37:22.981Z,7.40
2023-09-08T21:40:32.035Z,6.10
2023-09-08T21:43:39.893Z,7.30
2023-09-08T21:46:47.139Z,7.60
2023-09-08T21:49:54.986Z,6.30
2023-09-08T21:53:03.732Z,10.50
2023-09-08T21:56:11.281Z,7.70
2023-09-08T21:59:19.117Z,6.80
2023-09-08T22:02:28.147Z,6.90
2023-09-08T22:05:35.632Z,7.90
2023-09-08T22:08:43.040Z,8.70
2023-09-08T22:11:51.725Z,7.10
2023-09-08T22:14:59.466Z,9.20
2023-09-08T22:18:06.605Z,6.90
2023-09-08T22:21:15.345Z,7.70
2023-09-08T22:24:22.515Z,7.60
2023-09-08T22:27:30.275Z,5.80
2023-09-08T22:30:37.033Z,7.60
2023-09-08T22:33:46.646Z,6.00
2023-09-08T22:36:53.824Z,7.80
2023-09-08T22:40:00.980Z,8.30
2023-09-08T22:43:11.101Z,7.60
2023-09-08T22:46:18.013Z,5.30
2023-09-08T22:49:25.824Z,7.30
2023-09-08T22:52:34.578Z,5.10
2023-09-08T22:55:41.956Z,6.30
2023-09-08T22:58:49.562Z,5.00
2023-09-08T23:01:58.729Z,7.50
2023-09-08T23:05:05.747Z,6.50
2023-09-08T23:08:13.049Z,6.90
2023-09-08T23:11:20.379Z,7.60
2023-09-08T23:14:29.816Z,8.00
2023-09-08T23:17:37.631Z,8.20
2023-09-08T23:20:44.668Z,9.00
2023-09-08T23:23:53.746Z,6.50
2023-09-08T23:27:00.512Z,9.20
2023-09-08T23:30:08.754Z,5.80
2023-09-08T23:33:17.462Z,6.30
2023-09-08T23:36:24.605Z,15.40
2023-09-08T23:39:32.227Z,6.90
2023-09-08T23:42:41.352Z,5.90
2023-09-08T23:45:49.219Z,8.10
2023-09-08T23:48:57.907Z,7.40
2023-09-08T23:52:05.832Z,7.80
2023-09-08T23:55:14.613Z,7.50
2023-09-08T23:58:21.898Z,8.10
